»·PEaware :: N946S KNYL-KOLS

N946S :: KNYL-KOLS

FLIGHT INFORMATION

Flight Status: Arrived
Operator: Privately registered:
United States
More flights under this callsign
Pilot: Ethan S. (29221)
Aircraft: SOCATA TBM-900
(TBM9)
More flights by this aircraft type
Origin: KNYL Yuma MCAS/Yuma Intl
United States
Destination: KOLS Nogales Intl
United States
More flights between these airports :: More routes between these airports
Route: MOHAK4 MOHAK V66 TUS V393 OLS
File this flight plan on PilotEdge
Remarks:
Altitude:
(Current/Filed)
27,000ft
Speed:
(Current/Filed)
320kts
Departed: 09-Oct-20 08:29 AM
Arrived: 09-Oct-20 09:22 AM
Distance/Time
Traveled:
205nm/0:53
Distance/Time
To Go:
Arrived

Flight Plot

Page will automatically refresh every two minutes.

Flight plan parsing failed; only flown route is shown


Map Options




Map Legend


Flown Route
Filed Route
Departure Airport
Arrival Airport
Navaid (VOR, NDB)
Fix

Horizontal Profiles

Position Reports

Time Latitude Longitude Heading Altitude Ground
Speed
09-Oct-20 08:12 32.660393 -114.610470 178 189ft 0kts
09-Oct-20 08:13 32.660388 -114.610470 178 189ft 0kts
09-Oct-20 08:14 32.660388 -114.610470 178 189ft 0kts
09-Oct-20 08:15 32.660388 -114.610470 178 189ft 0kts
09-Oct-20 08:16 32.660388 -114.610470 178 189ft 0kts
09-Oct-20 08:17 32.660388 -114.610470 178 189ft 0kts
09-Oct-20 08:18 32.660388 -114.610470 178 189ft 0kts
09-Oct-20 08:20 32.660388 -114.610470 178 189ft 0kts
09-Oct-20 08:21 32.660388 -114.610470 178 189ft 0kts
09-Oct-20 08:26 32.659958 -114.605164 89 190ft 0kts
09-Oct-20 08:27 32.657863 -114.603873 178 190ft 25kts
09-Oct-20 08:28 32.652155 -114.603280 269 187ft 0kts
09-Oct-20 08:29 32.654620 -114.603811 358 187ft 64kts
09-Oct-20 08:30 32.687484 -114.603795 359 1834ft 139kts
09-Oct-20 08:31 32.726606 -114.603346 358 4393ft 139kts
09-Oct-20 08:32 32.765321 -114.596868 53 6605ft 148kts
09-Oct-20 08:33 32.768921 -114.546529 90 9273ft 153kts
09-Oct-20 08:34 32.769682 -114.493776 91 12056ft 157kts
09-Oct-20 08:35 32.770432 -114.438532 92 14666ft 168kts
09-Oct-20 08:36 32.771206 -114.380054 93 17302ft 176kts
09-Oct-20 08:37 32.771996 -114.318230 94 19627ft 185kts
09-Oct-20 08:38 32.772784 -114.253630 94 21696ft 194kts
09-Oct-20 08:39 32.773628 -114.179067 92 23048ft 259kts
09-Oct-20 08:39 32.774373 -114.115454 94 26140ft 214kts
09-Oct-20 08:41 32.775417 -114.012579 92 26934ft 299kts
09-Oct-20 08:41 32.783148 -113.921742 82 26909ft 328kts
09-Oct-20 08:43 32.802110 -113.789543 82 26903ft 338kts
09-Oct-20 08:43 32.815892 -113.692819 82 26910ft 340kts
09-Oct-20 08:45 32.835361 -113.555213 82 26932ft 341kts
09-Oct-20 08:45 32.849040 -113.457870 82 26940ft 341kts
09-Oct-20 08:46 32.865287 -113.341532 82 26939ft 342kts
09-Oct-20 08:47 32.881746 -113.222812 82 26936ft 341kts
09-Oct-20 08:48 32.897847 -113.105852 82 26937ft 341kts
09-Oct-20 08:49 32.913915 -112.988290 82 26938ft 341kts
09-Oct-20 08:50 32.929676 -112.872144 82 26938ft 341kts
09-Oct-20 08:51 32.945392 -112.755507 82 26939ft 340kts
09-Oct-20 08:52 32.941983 -112.639619 118 26929ft 328kts
09-Oct-20 08:53 32.892965 -112.541890 124 26940ft 326kts
09-Oct-20 08:54 32.845386 -112.442934 123 26940ft 326kts
09-Oct-20 08:55 32.799932 -112.348526 124 26940ft 326kts
09-Oct-20 08:56 32.754207 -112.253795 124 26947ft 325kts
09-Oct-20 08:57 32.707694 -112.157694 124 26970ft 325kts
09-Oct-20 08:58 32.661104 -112.061698 124 26991ft 325kts
09-Oct-20 08:59 32.614801 -111.966540 124 26991ft 325kts
09-Oct-20 09:00 32.568334 -111.871293 124 26991ft 325kts
09-Oct-20 09:01 32.521917 -111.776391 124 26996ft 325kts
09-Oct-20 09:02 32.475173 -111.681055 124 27008ft 325kts
09-Oct-20 09:03 32.428073 -111.585202 124 26178ft 342kts
09-Oct-20 09:04 32.378366 -111.485116 126 24483ft 339kts
09-Oct-20 09:05 32.326710 -111.388876 123 22942ft 333kts
09-Oct-20 09:06 32.280405 -111.290991 123 21424ft 329kts
09-Oct-20 09:07 32.235024 -111.195362 122 19942ft 325kts
09-Oct-20 09:08 32.189643 -111.103812 123 18506ft 312kts
09-Oct-20 09:09 32.145387 -111.015115 124 17120ft 307kts
09-Oct-20 09:10 32.079199 -110.964903 173 15974ft 283kts
09-Oct-20 09:11 32.000217 -110.950570 174 14938ft 281kts
09-Oct-20 09:12 31.923601 -110.936977 174 13892ft 268kts
09-Oct-20 09:13 31.848992 -110.923781 174 12870ft 265kts
09-Oct-20 09:14 31.773968 -110.910533 174 11848ft 263kts
09-Oct-20 09:15 31.700331 -110.892646 145 10947ft 270kts
09-Oct-20 09:16 31.633544 -110.851745 160 10644ft 262kts
09-Oct-20 09:17 31.574028 -110.803183 174 8823ft 240kts
09-Oct-20 09:18 31.510426 -110.792128 174 7205ft 201kts
09-Oct-20 09:19 31.457721 -110.797998 224 5431ft 142kts
09-Oct-20 09:20 31.435025 -110.826741 227 4452ft 102kts
09-Oct-20 09:21 31.418198 -110.847304 226 3898ft 35kts
09-Oct-20 09:22 31.416929 -110.850986 325 3879ft 8kts
09-Oct-20 09:23 31.418011 -110.850222 45 3886ft 0kts
09-Oct-20 09:24 31.418011 -110.850222 45 3886ft 0kts
09-Oct-20 09:25 31.418011 -110.850222 45 3886ft 0kts
09-Oct-20 09:26 31.418011 -110.850222 45 3886ft 0kts
09-Oct-20 09:27 31.418011 -110.850222 45 3886ft 0kts
09-Oct-20 09:28 31.418011 -110.850222 45 3886ft 0kts
09-Oct-20 09:29 31.418011 -110.850222 45 3886ft 0kts
09-Oct-20 09:30 31.418011 -110.850222 45 3886ft 0kts
09-Oct-20 09:31 31.418011 -110.850222 45 3886ft 0kts
09-Oct-20 09:32 31.418011 -110.850222 45 3886ft 0kts
09-Oct-20 09:33 31.418011 -110.850222 45 3886ft 0kts
09-Oct-20 09:34 31.418011 -110.850222 45 3886ft 0kts
09-Oct-20 09:35 31.418011 -110.850222 45 3886ft 0kts

Navigation Log

Ident Type
Flight plan parsing failed, navigation log unavailable